sensor_id;sensor_type;location;lat;lon;timestamp;P1;durP1;ratioP1;P2;durP2;ratioP2
46643;SDS011;32371;51.032;5.816;2023-02-24T00:01:36;8.75;;;1.92;;
46643;SDS011;32371;51.032;5.816;2023-02-24T00:04:05;6.50;;;1.80;;
46643;SDS011;32371;51.032;5.816;2023-02-24T00:06:34;9.65;;;1.60;;
46643;SDS011;32371;51.032;5.816;2023-02-24T00:09:02;11.85;;;2.03;;
46643;SDS011;32371;51.032;5.816;2023-02-24T00:11:30;9.55;;;1.98;;
46643;SDS011;32371;51.032;5.816;2023-02-24T00:13:55;9.63;;;1.80;;
46643;SDS011;32371;51.032;5.816;2023-02-24T00:16:21;10.25;;;2.08;;
46643;SDS011;32371;51.032;5.816;2023-02-24T00:18:49;9.65;;;2.03;;
46643;SDS011;32371;51.032;5.816;2023-02-24T00:21:15;9.77;;;2.28;;
46643;SDS011;32371;51.032;5.816;2023-02-24T00:23:44;9.88;;;2.17;;
46643;SDS011;32371;51.032;5.816;2023-02-24T00:26:11;7.00;;;2.22;;
46643;SDS011;32371;51.032;5.816;2023-02-24T00:28:38;12.43;;;2.33;;
46643;SDS011;32371;51.032;5.816;2023-02-24T00:31:11;5.65;;;1.25;;
46643;SDS011;32371;51.032;5.816;2023-02-24T00:33:41;13.65;;;1.60;;
46643;SDS011;32371;51.032;5.816;2023-02-24T00:36:09;12.70;;;1.75;;
46643;SDS011;32371;51.032;5.816;2023-02-24T00:38:39;15.45;;;2.08;;
46643;SDS011;32371;51.032;5.816;2023-02-24T00:41:11;14.40;;;2.75;;
46643;SDS011;32371;51.032;5.816;2023-02-24T00:43:46;9.07;;;2.20;;
46643;SDS011;32371;51.032;5.816;2023-02-24T00:46:17;14.27;;;1.98;;
46643;SDS011;32371;51.032;5.816;2023-02-24T00:48:45;8.10;;;1.58;;
46643;SDS011;32371;51.032;5.816;2023-02-24T00:51:12;16.70;;;1.85;;
46643;SDS011;32371;51.032;5.816;2023-02-24T00:53:47;5.88;;;2.00;;
46643;SDS011;32371;51.032;5.816;2023-02-24T00:56:13;10.05;;;2.15;;
46643;SDS011;32371;51.032;5.816;2023-02-24T00:58:42;4.97;;;1.45;;
46643;SDS011;32371;51.032;5.816;2023-02-24T01:01:12;14.20;;;1.80;;
46643;SDS011;32371;51.032;5.816;2023-02-24T01:03:40;10.57;;;1.77;;
46643;SDS011;32371;51.032;5.816;2023-02-24T01:06:06;14.35;;;3.70;;
46643;SDS011;32371;51.032;5.816;2023-02-24T01:08:31;9.30;;;2.13;;
46643;SDS011;32371;51.032;5.816;2023-02-24T01:11:00;19.80;;;1.95;;
46643;SDS011;32371;51.032;5.816;2023-02-24T01:13:45;10.68;;;1.90;;
46643;SDS011;32371;51.032;5.816;2023-02-24T01:16:11;10.95;;;1.58;;
46643;SDS011;32371;51.032;5.816;2023-02-24T01:18:42;11.68;;;1.42;;
46643;SDS011;32371;51.032;5.816;2023-02-24T01:21:08;8.20;;;1.92;;
46643;SDS011;32371;51.032;5.816;2023-02-24T01:23:36;13.82;;;2.25;;
46643;SDS011;32371;51.032;5.816;2023-02-24T01:26:01;20.80;;;2.13;;
46643;SDS011;32371;51.032;5.816;2023-02-24T01:28:27;18.48;;;2.78;;
46643;SDS011;32371;51.032;5.816;2023-02-24T01:30:52;10.27;;;1.63;;
46643;SDS011;32371;51.032;5.816;2023-02-24T01:33:19;11.82;;;1.83;;
46643;SDS011;32371;51.032;5.816;2023-02-24T01:35:45;12.80;;;1.60;;
46643;SDS011;32371;51.032;5.816;2023-02-24T01:38:12;10.18;;;2.38;;
46643;SDS011;32371;51.032;5.816;2023-02-24T01:40:37;13.75;;;2.33;;
46643;SDS011;32371;51.032;5.816;2023-02-24T01:43:03;9.85;;;2.30;;
46643;SDS011;32371;51.032;5.816;2023-02-24T01:45:33;12.32;;;2.08;;
46643;SDS011;32371;51.032;5.816;2023-02-24T01:48:02;7.93;;;2.50;;
46643;SDS011;32371;51.032;5.816;2023-02-24T01:50:31;15.90;;;2.70;;
46643;SDS011;32371;51.032;5.816;2023-02-24T01:53:00;11.48;;;2.97;;
46643;SDS011;32371;51.032;5.816;2023-02-24T01:55:28;8.77;;;2.05;;
46643;SDS011;32371;51.032;5.816;2023-02-24T01:57:57;6.53;;;1.75;;
46643;SDS011;32371;51.032;5.816;2023-02-24T02:00:24;14.75;;;2.03;;
46643;SDS011;32371;51.032;5.816;2023-02-24T02:03:35;16.02;;;2.30;;
46643;SDS011;32371;51.032;5.816;2023-02-24T02:06:02;7.80;;;1.55;;
46643;SDS011;32371;51.032;5.816;2023-02-24T02:08:30;9.23;;;1.70;;
46643;SDS011;32371;51.032;5.816;2023-02-24T02:10:57;13.85;;;1.70;;
46643;SDS011;32371;51.032;5.816;2023-02-24T02:13:26;10.70;;;1.98;;
46643;SDS011;32371;51.032;5.816;2023-02-24T02:15:59;13.57;;;2.33;;
46643;SDS011;32371;51.032;5.816;2023-02-24T02:18:41;14.18;;;1.80;;
46643;SDS011;32371;51.032;5.816;2023-02-24T02:37:12;5.45;;;2.10;;
46643;SDS011;32371;51.032;5.816;2023-02-24T02:39:50;17.05;;;1.98;;
46643;SDS011;32371;51.032;5.816;2023-02-24T02:42:29;18.70;;;2.63;;
46643;SDS011;32371;51.032;5.816;2023-02-24T02:48:14;15.13;;;2.35;;
46643;SDS011;32371;51.032;5.816;2023-02-24T02:51:01;12.35;;;2.35;;
46643;SDS011;32371;51.032;5.816;2023-02-24T02:53:34;10.68;;;1.30;;
46643;SDS011;32371;51.032;5.816;2023-02-24T02:56:20;15.15;;;2.05;;
46643;SDS011;32371;51.032;5.816;2023-02-24T02:58:51;10.20;;;1.73;;
46643;SDS011;32371;51.032;5.816;2023-02-24T03:01:18;11.40;;;1.42;;
46643;SDS011;32371;51.032;5.816;2023-02-24T03:03:48;8.13;;;1.30;;
46643;SDS011;32371;51.032;5.816;2023-02-24T03:06:23;10.15;;;2.03;;
46643;SDS011;32371;51.032;5.816;2023-02-24T03:09:12;9.57;;;1.88;;
46643;SDS011;32371;51.032;5.816;2023-02-24T03:11:40;19.80;;;2.00;;
46643;SDS011;32371;51.032;5.816;2023-02-24T03:14:08;15.15;;;2.35;;
46643;SDS011;32371;51.032;5.816;2023-02-24T03:16:37;8.65;;;2.08;;
46643;SDS011;32371;51.032;5.816;2023-02-24T03:19:05;11.35;;;2.00;;
46643;SDS011;32371;51.032;5.816;2023-02-24T03:21:36;8.30;;;1.70;;
46643;SDS011;32371;51.032;5.816;2023-02-24T03:24:04;6.88;;;1.83;;
46643;SDS011;32371;51.032;5.816;2023-02-24T03:26:46;8.05;;;1.40;;
46643;SDS011;32371;51.032;5.816;2023-02-24T03:29:40;16.90;;;2.28;;
46643;SDS011;32371;51.032;5.816;2023-02-24T03:35:00;8.95;;;2.85;;
46643;SDS011;32371;51.032;5.816;2023-02-24T03:37:30;9.85;;;1.48;;
46643;SDS011;32371;51.032;5.816;2023-02-24T03:39:58;7.63;;;2.17;;
46643;SDS011;32371;51.032;5.816;2023-02-24T03:42:26;15.13;;;1.75;;
46643;SDS011;32371;51.032;5.816;2023-02-24T03:44:54;18.58;;;2.45;;
46643;SDS011;32371;51.032;5.816;2023-02-24T03:47:22;9.93;;;2.78;;
46643;SDS011;32371;51.032;5.816;2023-02-24T03:49:48;8.30;;;2.25;;
46643;SDS011;32371;51.032;5.816;2023-02-24T04:14:16;12.02;;;1.88;;
46643;SDS011;32371;51.032;5.816;2023-02-24T04:16:47;7.55;;;2.75;;
46643;SDS011;32371;51.032;5.816;2023-02-24T04:19:18;13.73;;;2.28;;
46643;SDS011;32371;51.032;5.816;2023-02-24T04:21:45;6.45;;;1.92;;
46643;SDS011;32371;51.032;5.816;2023-02-24T04:24:12;14.23;;;2.25;;
46643;SDS011;32371;51.032;5.816;2023-02-24T04:26:41;17.02;;;1.63;;
46643;SDS011;32371;51.032;5.816;2023-02-24T04:29:09;12.23;;;1.65;;
46643;SDS011;32371;51.032;5.816;2023-02-24T04:31:42;23.75;;;2.38;;
46643;SDS011;32371;51.032;5.816;2023-02-24T04:34:09;16.80;;;1.85;;
46643;SDS011;32371;51.032;5.816;2023-02-24T04:36:35;15.20;;;2.30;;
46643;SDS011;32371;51.032;5.816;2023-02-24T04:39:02;13.63;;;1.95;;
46643;SDS011;32371;51.032;5.816;2023-02-24T04:41:29;5.90;;;1.58;;
46643;SDS011;32371;51.032;5.816;2023-02-24T04:43:54;8.38;;;1.80;;
46643;SDS011;32371;51.032;5.816;2023-02-24T04:46:20;16.48;;;2.58;;
46643;SDS011;32371;51.032;5.816;2023-02-24T04:48:47;15.18;;;2.58;;
46643;SDS011;32371;51.032;5.816;2023-02-24T04:51:14;6.80;;;1.63;;
46643;SDS011;32371;51.032;5.816;2023-02-24T04:53:40;8.57;;;1.77;;
46643;SDS011;32371;51.032;5.816;2023-02-24T04:56:06;19.58;;;2.42;;
46643;SDS011;32371;51.032;5.816;2023-02-24T04:58:32;8.38;;;2.05;;
46643;SDS011;32371;51.032;5.816;2023-02-24T05:01:05;12.35;;;2.65;;
46643;SDS011;32371;51.032;5.816;2023-02-24T05:03:33;6.85;;;1.35;;
46643;SDS011;32371;51.032;5.816;2023-02-24T05:05:59;15.55;;;1.92;;
46643;SDS011;32371;51.032;5.816;2023-02-24T05:08:25;8.50;;;2.08;;
46643;SDS011;32371;51.032;5.816;2023-02-24T05:10:52;12.18;;;2.10;;
46643;SDS011;32371;51.032;5.816;2023-02-24T05:13:27;9.90;;;2.05;;
46643;SDS011;32371;51.032;5.816;2023-02-24T05:15:57;9.30;;;1.42;;
46643;SDS011;32371;51.032;5.816;2023-02-24T05:18:24;11.20;;;1.60;;
46643;SDS011;32371;51.032;5.816;2023-02-24T05:20:54;14.98;;;2.08;;
46643;SDS011;32371;51.032;5.816;2023-02-24T05:23:39;7.97;;;1.63;;
46643;SDS011;32371;51.032;5.816;2023-02-24T05:26:10;12.52;;;2.10;;
46643;SDS011;32371;51.032;5.816;2023-02-24T05:28:43;7.90;;;1.67;;
46643;SDS011;32371;51.032;5.816;2023-02-24T05:31:13;10.77;;;2.20;;
46643;SDS011;32371;51.032;5.816;2023-02-24T05:33:41;10.88;;;1.70;;
46643;SDS011;32371;51.032;5.816;2023-02-24T05:36:09;12.85;;;2.45;;
46643;SDS011;32371;51.032;5.816;2023-02-24T05:38:36;15.45;;;2.80;;
46643;SDS011;32371;51.032;5.816;2023-02-24T05:41:06;6.93;;;1.75;;
46643;SDS011;32371;51.032;5.816;2023-02-24T05:43:32;16.80;;;1.90;;
46643;SDS011;32371;51.032;5.816;2023-02-24T05:46:03;4.88;;;3.33;;
46643;SDS011;32371;51.032;5.816;2023-02-24T05:48:28;11.77;;;1.52;;
46643;SDS011;32371;51.032;5.816;2023-02-24T05:50:59;15.80;;;2.58;;
46643;SDS011;32371;51.032;5.816;2023-02-24T05:53:28;4.07;;;1.73;;
46643;SDS011;32371;51.032;5.816;2023-02-24T05:55:53;14.80;;;1.75;;
46643;SDS011;32371;51.032;5.816;2023-02-24T05:58:19;8.73;;;1.17;;
46643;SDS011;32371;51.032;5.816;2023-02-24T06:00:45;10.27;;;1.38;;
46643;SDS011;32371;51.032;5.816;2023-02-24T06:03:10;10.98;;;1.95;;
46643;SDS011;32371;51.032;5.816;2023-02-24T06:05:51;12.57;;;2.97;;
46643;SDS011;32371;51.032;5.816;2023-02-24T06:08:17;7.50;;;1.75;;
46643;SDS011;32371;51.032;5.816;2023-02-24T06:10:42;8.27;;;1.75;;
46643;SDS011;32371;51.032;5.816;2023-02-24T06:13:11;5.95;;;1.85;;
46643;SDS011;32371;51.032;5.816;2023-02-24T06:15:36;12.05;;;1.52;;
46643;SDS011;32371;51.032;5.816;2023-02-24T06:18:01;16.10;;;2.92;;
46643;SDS011;32371;51.032;5.816;2023-02-24T06:20:27;5.53;;;2.30;;
46643;SDS011;32371;51.032;5.816;2023-02-24T06:22:53;9.57;;;2.10;;
46643;SDS011;32371;51.032;5.816;2023-02-24T06:25:21;7.68;;;1.33;;
46643;SDS011;32371;51.032;5.816;2023-02-24T06:27:52;16.35;;;1.60;;
46643;SDS011;32371;51.032;5.816;2023-02-24T06:30:20;7.75;;;1.52;;
46643;SDS011;32371;51.032;5.816;2023-02-24T06:32:46;6.97;;;1.58;;
46643;SDS011;32371;51.032;5.816;2023-02-24T06:35:12;6.45;;;1.73;;
46643;SDS011;32371;51.032;5.816;2023-02-24T06:45:23;10.10;;;2.65;;
46643;SDS011;32371;51.032;5.816;2023-02-24T06:47:50;8.07;;;1.92;;
46643;SDS011;32371;51.032;5.816;2023-02-24T06:50:17;12.18;;;2.85;;
46643;SDS011;32371;51.032;5.816;2023-02-24T06:52:44;4.13;;;1.60;;
46643;SDS011;32371;51.032;5.816;2023-02-24T06:55:10;9.25;;;2.30;;
46643;SDS011;32371;51.032;5.816;2023-02-24T06:57:49;7.10;;;2.50;;
46643;SDS011;32371;51.032;5.816;2023-02-24T07:00:29;10.20;;;1.52;;
46643;SDS011;32371;51.032;5.816;2023-02-24T07:03:06;14.45;;;1.85;;
46643;SDS011;32371;51.032;5.816;2023-02-24T07:05:49;13.82;;;1.80;;
46643;SDS011;32371;51.032;5.816;2023-02-24T07:08:35;7.85;;;1.95;;
46643;SDS011;32371;51.032;5.816;2023-02-24T07:11:02;15.52;;;2.40;;
46643;SDS011;32371;51.032;5.816;2023-02-24T07:13:30;6.50;;;1.85;;
46643;SDS011;32371;51.032;5.816;2023-02-24T07:15:58;12.88;;;1.65;;
46643;SDS011;32371;51.032;5.816;2023-02-24T07:18:28;15.10;;;1.75;;
46643;SDS011;32371;51.032;5.816;2023-02-24T07:20:54;17.38;;;2.20;;
46643;SDS011;32371;51.032;5.816;2023-02-24T07:23:20;14.65;;;1.92;;
46643;SDS011;32371;51.032;5.816;2023-02-24T07:25:45;12.52;;;1.70;;
46643;SDS011;32371;51.032;5.816;2023-02-24T07:28:11;12.50;;;1.45;;
46643;SDS011;32371;51.032;5.816;2023-02-24T07:30:38;9.02;;;1.40;;
46643;SDS011;32371;51.032;5.816;2023-02-24T07:33:05;5.07;;;1.50;;
46643;SDS011;32371;51.032;5.816;2023-02-24T07:35:31;11.32;;;1.83;;
46643;SDS011;32371;51.032;5.816;2023-02-24T07:37:57;13.45;;;2.08;;
46643;SDS011;32371;51.032;5.816;2023-02-24T07:40:32;9.95;;;1.98;;
46643;SDS011;32371;51.032;5.816;2023-02-24T07:43:01;14.47;;;1.33;;
46643;SDS011;32371;51.032;5.816;2023-02-24T07:45:27;7.03;;;1.95;;
46643;SDS011;32371;51.032;5.816;2023-02-24T07:47:53;4.60;;;1.40;;
46643;SDS011;32371;51.032;5.816;2023-02-24T07:50:19;9.77;;;1.85;;
46643;SDS011;32371;51.032;5.816;2023-02-24T07:52:45;5.03;;;1.45;;
46643;SDS011;32371;51.032;5.816;2023-02-24T07:55:14;3.80;;;1.30;;
46643;SDS011;32371;51.032;5.816;2023-02-24T07:57:40;10.02;;;1.92;;
46643;SDS011;32371;51.032;5.816;2023-02-24T08:00:11;8.23;;;1.65;;
46643;SDS011;32371;51.032;5.816;2023-02-24T08:02:42;10.93;;;1.90;;
46643;SDS011;32371;51.032;5.816;2023-02-24T08:05:09;11.25;;;1.67;;
46643;SDS011;32371;51.032;5.816;2023-02-24T08:07:34;8.85;;;1.52;;
46643;SDS011;32371;51.032;5.816;2023-02-24T08:09:59;9.45;;;1.92;;
46643;SDS011;32371;51.032;5.816;2023-02-24T08:12:34;13.55;;;2.33;;
46643;SDS011;32371;51.032;5.816;2023-02-24T08:15:00;6.80;;;1.23;;
46643;SDS011;32371;51.032;5.816;2023-02-24T08:17:32;13.50;;;1.95;;
46643;SDS011;32371;51.032;5.816;2023-02-24T08:19:58;11.57;;;1.83;;
46643;SDS011;32371;51.032;5.816;2023-02-24T08:22:42;6.22;;;1.77;;
46643;SDS011;32371;51.032;5.816;2023-02-24T08:25:10;11.55;;;2.00;;
46643;SDS011;32371;51.032;5.816;2023-02-24T08:27:42;5.88;;;1.55;;
46643;SDS011;32371;51.032;5.816;2023-02-24T08:30:09;11.95;;;3.13;;
46643;SDS011;32371;51.032;5.816;2023-02-24T08:32:48;9.40;;;1.85;;
46643;SDS011;32371;51.032;5.816;2023-02-24T08:35:21;11.57;;;3.00;;
46643;SDS011;32371;51.032;5.816;2023-02-24T08:37:50;19.45;;;2.25;;
46643;SDS011;32371;51.032;5.816;2023-02-24T08:40:20;4.50;;;1.98;;
46643;SDS011;32371;51.032;5.816;2023-02-24T08:43:07;8.65;;;2.42;;
46643;SDS011;32371;51.032;5.816;2023-02-24T08:46:00;16.00;;;2.60;;
46643;SDS011;32371;51.032;5.816;2023-02-24T08:51:03;10.40;;;2.38;;
46643;SDS011;32371;51.032;5.816;2023-02-24T08:53:34;10.10;;;2.42;;
46643;SDS011;32371;51.032;5.816;2023-02-24T08:56:04;8.23;;;2.30;;
46643;SDS011;32371;51.032;5.816;2023-02-24T08:58:36;8.68;;;2.40;;
46643;SDS011;32371;51.032;5.816;2023-02-24T09:01:11;6.93;;;2.88;;
46643;SDS011;32371;51.032;5.816;2023-02-24T09:03:48;11.43;;;2.40;;
46643;SDS011;32371;51.032;5.816;2023-02-24T09:06:17;5.88;;;2.30;;
46643;SDS011;32371;51.032;5.816;2023-02-24T09:08:49;9.50;;;2.67;;
46643;SDS011;32371;51.032;5.816;2023-02-24T09:11:36;12.50;;;3.35;;
46643;SDS011;32371;51.032;5.816;2023-02-24T09:14:01;8.73;;;3.03;;
46643;SDS011;32371;51.032;5.816;2023-02-24T09:16:29;17.00;;;3.75;;
46643;SDS011;32371;51.032;5.816;2023-02-24T09:18:54;15.35;;;3.08;;
46643;SDS011;32371;51.032;5.816;2023-02-24T09:21:38;14.75;;;2.38;;
46643;SDS011;32371;51.032;5.816;2023-02-24T09:24:13;10.85;;;2.33;;
46643;SDS011;32371;51.032;5.816;2023-02-24T09:26:38;13.35;;;3.10;;
46643;SDS011;32371;51.032;5.816;2023-02-24T09:29:10;8.90;;;2.80;;
46643;SDS011;32371;51.032;5.816;2023-02-24T09:31:54;10.48;;;2.20;;
46643;SDS011;32371;51.032;5.816;2023-02-24T09:34:28;11.57;;;2.90;;
46643;SDS011;32371;51.032;5.816;2023-02-24T09:37:01;8.30;;;2.60;;
46643;SDS011;32371;51.032;5.816;2023-02-24T09:39:29;16.27;;;2.83;;
46643;SDS011;32371;51.032;5.816;2023-02-24T09:42:22;7.57;;;2.38;;
46643;SDS011;32371;51.032;5.816;2023-02-24T09:44:53;8.52;;;2.05;;
46643;SDS011;32371;51.032;5.816;2023-02-24T09:52:38;7.25;;;1.67;;
46643;SDS011;32371;51.032;5.816;2023-02-24T10:00:37;9.20;;;1.80;;
46643;SDS011;32371;51.032;5.816;2023-02-24T10:06:03;13.55;;;1.42;;
46643;SDS011;32371;51.032;5.816;2023-02-24T10:08:39;9.20;;;1.73;;
46643;SDS011;32371;51.032;5.816;2023-02-24T10:11:08;10.68;;;2.45;;
46643;SDS011;32371;51.032;5.816;2023-02-24T10:13:37;8.30;;;1.75;;
46643;SDS011;32371;51.032;5.816;2023-02-24T10:16:15;6.80;;;1.30;;
46643;SDS011;32371;51.032;5.816;2023-02-24T10:19:23;8.95;;;1.70;;
46643;SDS011;32371;51.032;5.816;2023-02-24T10:21:51;8.77;;;1.55;;
46643;SDS011;32371;51.032;5.816;2023-02-24T10:31:20;9.10;;;1.58;;
46643;SDS011;32371;51.032;5.816;2023-02-24T10:33:26;11.05;;;2.42;;
46643;SDS011;32371;51.032;5.816;2023-02-24T10:36:09;12.88;;;1.88;;
46643;SDS011;32371;51.032;5.816;2023-02-24T10:38:37;6.65;;;1.80;;
46643;SDS011;32371;51.032;5.816;2023-02-24T10:41:07;11.77;;;1.73;;
46643;SDS011;32371;51.032;5.816;2023-02-24T10:43:33;17.35;;;2.35;;
46643;SDS011;32371;51.032;5.816;2023-02-24T10:46:16;8.63;;;1.70;;
46643;SDS011;32371;51.032;5.816;2023-02-24T10:48:56;13.80;;;2.30;;
46643;SDS011;32371;51.032;5.816;2023-02-24T10:51:27;6.47;;;1.38;;
46643;SDS011;32371;51.032;5.816;2023-02-24T10:54:05;14.27;;;1.77;;
46643;SDS011;32371;51.032;5.816;2023-02-24T10:57:07;10.52;;;1.67;;
46643;SDS011;32371;51.032;5.816;2023-02-24T11:00:00;3.85;;;1.45;;
46643;SDS011;32371;51.032;5.816;2023-02-24T11:02:55;12.25;;;1.67;;
46643;SDS011;32371;51.032;5.816;2023-02-24T11:05:33;7.53;;;2.03;;
46643;SDS011;32371;51.032;5.816;2023-02-24T11:08:13;10.88;;;1.40;;
46643;SDS011;32371;51.032;5.816;2023-02-24T11:10:59;7.07;;;2.25;;
46643;SDS011;32371;51.032;5.816;2023-02-24T11:13:31;5.97;;;1.90;;
46643;SDS011;32371;51.032;5.816;2023-02-24T11:16:15;6.65;;;2.20;;
46643;SDS011;32371;51.032;5.816;2023-02-24T11:18:59;14.38;;;1.80;;
46643;SDS011;32371;51.032;5.816;2023-02-24T11:21:25;8.80;;;1.67;;
46643;SDS011;32371;51.032;5.816;2023-02-24T11:23:52;9.60;;;1.55;;
46643;SDS011;32371;51.032;5.816;2023-02-24T11:26:24;3.53;;;1.75;;
46643;SDS011;32371;51.032;5.816;2023-02-24T11:47:46;7.63;;;1.83;;
46643;SDS011;32371;51.032;5.816;2023-02-24T11:53:01;9.18;;;2.33;;
46643;SDS011;32371;51.032;5.816;2023-02-24T11:55:39;6.10;;;2.30;;
46643;SDS011;32371;51.032;5.816;2023-02-24T11:58:17;12.88;;;4.20;;
46643;SDS011;32371;51.032;5.816;2023-02-24T12:00:50;6.95;;;1.23;;
46643;SDS011;32371;51.032;5.816;2023-02-24T12:06:21;5.45;;;1.30;;
46643;SDS011;32371;51.032;5.816;2023-02-24T12:08:52;2.97;;;1.58;;
46643;SDS011;32371;51.032;5.816;2023-02-24T12:11:25;6.82;;;1.52;;
46643;SDS011;32371;51.032;5.816;2023-02-24T12:14:05;8.40;;;1.55;;
46643;SDS011;32371;51.032;5.816;2023-02-24T12:17:00;2.90;;;1.13;;
46643;SDS011;32371;51.032;5.816;2023-02-24T12:22:32;7.10;;;1.60;;
46643;SDS011;32371;51.032;5.816;2023-02-24T12:25:12;5.63;;;1.60;;
46643;SDS011;32371;51.032;5.816;2023-02-24T12:30:28;7.60;;;1.60;;
46643;SDS011;32371;51.032;5.816;2023-02-24T12:33:22;7.47;;;1.27;;
46643;SDS011;32371;51.032;5.816;2023-02-24T12:36:04;3.83;;;1.25;;
46643;SDS011;32371;51.032;5.816;2023-02-24T12:52:08;3.85;;;1.42;;
46643;SDS011;32371;51.032;5.816;2023-02-24T12:55:03;7.57;;;1.60;;
46643;SDS011;32371;51.032;5.816;2023-02-24T13:05:44;7.25;;;1.58;;
46643;SDS011;32371;51.032;5.816;2023-02-24T13:08:16;5.82;;;0.95;;
46643;SDS011;32371;51.032;5.816;2023-02-24T13:10:47;13.23;;;1.60;;
46643;SDS011;32371;51.032;5.816;2023-02-24T13:13:30;5.85;;;1.88;;
46643;SDS011;32371;51.032;5.816;2023-02-24T13:15:59;8.23;;;1.83;;
46643;SDS011;32371;51.032;5.816;2023-02-24T13:18:29;7.90;;;1.70;;
46643;SDS011;32371;51.032;5.816;2023-02-24T13:21:03;5.97;;;1.52;;
46643;SDS011;32371;51.032;5.816;2023-02-24T13:23:29;10.38;;;1.50;;
46643;SDS011;32371;51.032;5.816;2023-02-24T13:25:55;6.80;;;1.92;;
46643;SDS011;32371;51.032;5.816;2023-02-24T13:28:23;8.60;;;2.22;;
46643;SDS011;32371;51.032;5.816;2023-02-24T13:33:51;4.20;;;1.77;;
46643;SDS011;32371;51.032;5.816;2023-02-24T13:36:21;4.43;;;1.50;;
46643;SDS011;32371;51.032;5.816;2023-02-24T13:41:20;5.97;;;1.23;;
46643;SDS011;32371;51.032;5.816;2023-02-24T13:46:27;3.42;;;1.95;;
46643;SDS011;32371;51.032;5.816;2023-02-24T13:51:49;7.55;;;2.25;;
46643;SDS011;32371;51.032;5.816;2023-02-24T14:02:52;11.43;;;2.60;;
46643;SDS011;32371;51.032;5.816;2023-02-24T14:05:25;2.85;;;1.23;;
46643;SDS011;32371;51.032;5.816;2023-02-24T14:07:52;4.32;;;1.92;;
46643;SDS011;32371;51.032;5.816;2023-02-24T14:12:45;5.53;;;1.88;;
46643;SDS011;32371;51.032;5.816;2023-02-24T14:15:12;8.70;;;1.90;;
46643;SDS011;32371;51.032;5.816;2023-02-24T14:17:41;10.13;;;2.47;;
46643;SDS011;32371;51.032;5.816;2023-02-24T14:22:45;7.10;;;2.10;;
46643;SDS011;32371;51.032;5.816;2023-02-24T14:25:14;6.63;;;2.20;;
46643;SDS011;32371;51.032;5.816;2023-02-24T14:27:42;5.82;;;2.40;;
46643;SDS011;32371;51.032;5.816;2023-02-24T14:30:54;7.88;;;1.95;;
46643;SDS011;32371;51.032;5.816;2023-02-24T14:32:58;5.38;;;2.20;;
46643;SDS011;32371;51.032;5.816;2023-02-24T14:35:34;7.65;;;2.08;;
46643;SDS011;32371;51.032;5.816;2023-02-24T14:38:02;8.00;;;1.50;;
46643;SDS011;32371;51.032;5.816;2023-02-24T14:40:27;8.82;;;2.08;;
46643;SDS011;32371;51.032;5.816;2023-02-24T14:42:53;3.85;;;1.88;;
46643;SDS011;32371;51.032;5.816;2023-02-24T14:45:20;8.30;;;1.85;;
46643;SDS011;32371;51.032;5.816;2023-02-24T14:47:49;3.53;;;1.42;;
46643;SDS011;32371;51.032;5.816;2023-02-24T14:50:19;12.77;;;2.72;;
46643;SDS011;32371;51.032;5.816;2023-02-24T14:52:53;7.38;;;2.13;;
46643;SDS011;32371;51.032;5.816;2023-02-24T14:55:30;5.57;;;2.25;;
46643;SDS011;32371;51.032;5.816;2023-02-24T14:57:59;6.20;;;2.08;;
46643;SDS011;32371;51.032;5.816;2023-02-24T15:00:47;3.92;;;1.90;;
46643;SDS011;32371;51.032;5.816;2023-02-24T15:03:35;5.95;;;2.45;;
46643;SDS011;32371;51.032;5.816;2023-02-24T15:06:06;7.32;;;2.72;;
46643;SDS011;32371;51.032;5.816;2023-02-24T15:08:39;5.13;;;2.63;;
46643;SDS011;32371;51.032;5.816;2023-02-24T15:13:45;9.90;;;3.60;;
46643;SDS011;32371;51.032;5.816;2023-02-24T15:19:03;11.35;;;3.13;;
46643;SDS011;32371;51.032;5.816;2023-02-24T15:21:29;11.52;;;3.50;;
46643;SDS011;32371;51.032;5.816;2023-02-24T15:24:01;13.73;;;5.03;;
46643;SDS011;32371;51.032;5.816;2023-02-24T15:26:30;6.53;;;3.13;;
46643;SDS011;32371;51.032;5.816;2023-02-24T15:28:57;16.02;;;3.22;;
46643;SDS011;32371;51.032;5.816;2023-02-24T15:31:24;12.98;;;3.00;;
46643;SDS011;32371;51.032;5.816;2023-02-24T15:33:54;10.93;;;3.75;;
46643;SDS011;32371;51.032;5.816;2023-02-24T15:36:25;6.97;;;2.83;;
46643;SDS011;32371;51.032;5.816;2023-02-24T15:38:59;10.52;;;3.88;;
46643;SDS011;32371;51.032;5.816;2023-02-24T15:41:40;10.77;;;3.55;;
46643;SDS011;32371;51.032;5.816;2023-02-24T15:44:23;9.82;;;4.05;;
46643;SDS011;32371;51.032;5.816;2023-02-24T15:46:48;5.60;;;3.05;;
46643;SDS011;32371;51.032;5.816;2023-02-24T15:49:14;4.30;;;3.17;;
46643;SDS011;32371;51.032;5.816;2023-02-24T15:51:42;21.75;;;4.28;;
46643;SDS011;32371;51.032;5.816;2023-02-24T15:56:39;8.52;;;3.38;;
46643;SDS011;32371;51.032;5.816;2023-02-24T15:59:05;5.03;;;2.97;;
46643;SDS011;32371;51.032;5.816;2023-02-24T16:01:31;4.85;;;2.80;;
46643;SDS011;32371;51.032;5.816;2023-02-24T16:03:57;6.30;;;3.15;;
46643;SDS011;32371;51.032;5.816;2023-02-24T16:06:24;8.60;;;2.78;;
46643;SDS011;32371;51.032;5.816;2023-02-24T16:08:50;10.48;;;3.15;;
46643;SDS011;32371;51.032;5.816;2023-02-24T16:11:17;10.38;;;3.30;;
46643;SDS011;32371;51.032;5.816;2023-02-24T16:13:47;4.18;;;2.92;;
46643;SDS011;32371;51.032;5.816;2023-02-24T16:16:15;7.28;;;3.70;;
46643;SDS011;32371;51.032;5.816;2023-02-24T16:18:40;9.95;;;4.18;;
46643;SDS011;32371;51.032;5.816;2023-02-24T16:21:06;13.82;;;4.03;;
46643;SDS011;32371;51.032;5.816;2023-02-24T16:23:32;14.70;;;4.38;;
46643;SDS011;32371;51.032;5.816;2023-02-24T16:26:04;8.18;;;3.47;;
46643;SDS011;32371;51.032;5.816;2023-02-24T16:28:29;9.73;;;3.90;;
46643;SDS011;32371;51.032;5.816;2023-02-24T16:30:55;6.95;;;4.10;;
46643;SDS011;32371;51.032;5.816;2023-02-24T16:33:21;7.03;;;3.88;;
46643;SDS011;32371;51.032;5.816;2023-02-24T16:35:48;12.60;;;4.60;;
46643;SDS011;32371;51.032;5.816;2023-02-24T16:38:17;10.85;;;4.18;;
46643;SDS011;32371;51.032;5.816;2023-02-24T16:40:44;13.23;;;4.00;;
46643;SDS011;32371;51.032;5.816;2023-02-24T16:43:11;10.55;;;4.53;;
46643;SDS011;32371;51.032;5.816;2023-02-24T16:45:37;15.45;;;4.13;;
46643;SDS011;32371;51.032;5.816;2023-02-24T16:48:04;13.35;;;4.80;;
46643;SDS011;32371;51.032;5.816;2023-02-24T16:50:36;7.72;;;4.97;;
46643;SDS011;32371;51.032;5.816;2023-02-24T16:53:03;14.48;;;5.60;;
46643;SDS011;32371;51.032;5.816;2023-02-24T16:55:29;8.20;;;5.25;;
46643;SDS011;32371;51.032;5.816;2023-02-24T16:57:54;10.55;;;5.10;;
46643;SDS011;32371;51.032;5.816;2023-02-24T17:00:20;9.23;;;4.50;;
46643;SDS011;32371;51.032;5.816;2023-02-24T17:02:47;19.80;;;5.70;;
46643;SDS011;32371;51.032;5.816;2023-02-24T17:05:17;13.65;;;5.20;;
46643;SDS011;32371;51.032;5.816;2023-02-24T17:07:47;16.70;;;5.90;;
46643;SDS011;32371;51.032;5.816;2023-02-24T17:10:14;13.05;;;6.28;;
46643;SDS011;32371;51.032;5.816;2023-02-24T17:12:40;11.50;;;4.63;;
46643;SDS011;32371;51.032;5.816;2023-02-24T17:15:06;13.73;;;6.05;;
46643;SDS011;32371;51.032;5.816;2023-02-24T17:17:33;8.35;;;5.00;;
46643;SDS011;32371;51.032;5.816;2023-02-24T17:19:59;7.75;;;4.25;;
46643;SDS011;32371;51.032;5.816;2023-02-24T17:22:25;8.95;;;4.78;;
46643;SDS011;32371;51.032;5.816;2023-02-24T17:24:50;15.68;;;5.15;;
46643;SDS011;32371;51.032;5.816;2023-02-24T17:27:15;12.98;;;4.70;;
46643;SDS011;32371;51.032;5.816;2023-02-24T17:29:41;13.75;;;4.95;;
46643;SDS011;32371;51.032;5.816;2023-02-24T17:32:06;10.00;;;4.97;;
46643;SDS011;32371;51.032;5.816;2023-02-24T17:34:32;10.40;;;5.30;;
46643;SDS011;32371;51.032;5.816;2023-02-24T17:36:57;16.90;;;6.28;;
46643;SDS011;32371;51.032;5.816;2023-02-24T17:39:22;10.45;;;5.63;;
46643;SDS011;32371;51.032;5.816;2023-02-24T17:41:48;11.02;;;5.25;;